Time;durP1;ratioP1;P1;durP2;ratioP2;P2;SDS_P1;SDS_P2;PMS_P1;PMS_P2;Temp;Humidity;BMP_temperature;BMP_pressure;BME280_temperature;BME280_humidity;BME280_pressure;Samples;Min_cycle;Max_cycle;Signal;HPM_P1;HPM_P2
2022/05/15 00:01:28;;;;;;;11.52;5.10;;;;;;;11.67;100.00;98765.94;6199321;23;20027;-64
2022/05/15 00:04:12;;;;;;;11.85;5.25;;;;;;;11.61;100.00;98782.13;6240754;23;20027;-64
2022/05/15 00:06:57;;;;;;;13.10;4.60;;;;;;;11.74;100.00;98786.88;6199313;23;20027;-63
2022/05/15 00:09:42;;;;;;;10.20;4.57;;;;;;;11.81;100.00;98777.75;6251764;23;20031;-63
2022/05/15 00:12:26;;;;;;;10.02;4.47;;;;;;;11.78;100.00;98791.13;6253281;23;20038;-63
2022/05/15 00:15:10;;;;;;;9.80;3.75;;;;;;;11.73;100.00;98782.50;6243268;23;20031;-63
2022/05/15 00:17:55;;;;;;;9.07;3.67;;;;;;;11.62;100.00;98776.75;6199016;23;20476;-62
2022/05/15 00:20:39;;;;;;;7.10;3.80;;;;;;;11.62;100.00;98771.44;6253426;23;20077;-63
2022/05/15 00:23:25;;;;;;;7.78;3.60;;;;;;;11.54;100.00;98768.19;6240857;23;20415;-69
2022/05/15 00:26:11;;;;;;;14.40;3.83;;;;;;;11.57;100.00;98773.38;6253470;23;20472;-62
2022/05/15 00:28:55;;;;;;;9.00;3.60;;;;;;;11.61;100.00;98787.41;6218678;23;20031;-63
2022/05/15 00:31:39;;;;;;;9.27;3.80;;;;;;;11.59;100.00;98781.28;6218357;23;20026;-63
2022/05/15 00:34:24;;;;;;;9.60;4.50;;;;;;;11.59;100.00;98778.63;6250317;23;20062;-63
2022/05/15 00:37:09;;;;;;;9.25;4.18;;;;;;;11.65;100.00;98787.25;6250311;23;20078;-63
2022/05/15 00:39:53;;;;;;;10.60;4.03;;;;;;;11.61;100.00;98782.13;6251644;23;20524;-61
2022/05/15 00:42:38;;;;;;;14.60;4.45;;;;;;;11.59;100.00;98774.16;6249006;23;20082;-62
2022/05/15 00:45:24;;;;;;;14.18;4.07;;;;;;;11.67;100.00;98785.38;6218659;23;20046;-63
2022/05/15 00:48:08;;;;;;;9.90;4.40;;;;;;;11.69;100.00;98780.88;6249089;23;20472;-63
2022/05/15 00:50:53;;;;;;;12.35;3.10;;;;;;;11.62;100.00;98789.16;6229063;23;20043;-62
2022/05/15 00:53:40;;;;;;;8.73;2.70;;;;;;;11.49;100.00;98769.28;6228942;23;20034;-64
2022/05/15 00:56:28;;;;;;;8.85;3.13;;;;;;;11.42;100.00;98771.31;6251524;23;20031;-61
2022/05/15 00:59:16;;;;;;;8.90;2.80;;;;;;;11.41;100.00;98777.56;6229044;23;20078;-64
2022/05/15 01:02:00;;;;;;;7.07;2.78;;;;;;;11.34;100.00;98773.41;6217185;23;20026;-63
2022/05/15 01:04:47;;;;;;;8.02;3.03;;;;;;;11.34;100.00;98773.41;6241219;23;20047;-63
2022/05/15 01:07:32;;;;;;;9.82;2.83;;;;;;;11.34;100.00;98773.41;6218768;23;20249;-62
2022/05/15 01:10:16;;;;;;;9.10;3.22;;;;;;;11.25;100.00;98768.47;6251465;23;20034;-63
2022/05/15 01:13:04;;;;;;;11.88;2.85;;;;;;;11.27;100.00;98771.91;6228765;23;20070;-62
2022/05/15 01:15:50;;;;;;;8.60;2.40;;;;;;;11.17;100.00;98751.97;6195337;23;20035;-62
2022/05/15 01:18:38;;;;;;;7.95;2.97;;;;;;;11.25;100.00;98756.97;6250155;23;20362;-62
2022/05/15 01:21:28;;;;;;;12.88;3.08;;;;;;;11.36;100.00;98765.41;6250786;23;20070;-62
2022/05/15 01:24:14;;;;;;;7.03;2.58;;;;;;;11.43;100.00;98765.09;6218393;23;20023;-66
2022/05/15 01:27:04;;;;;;;9.20;2.80;;;;;;;11.47;100.00;98758.72;6228688;23;20030;-64
2022/05/15 01:29:50;;;;;;;5.68;2.40;;;;;;;11.47;100.00;98760.53;6216010;23;20073;-63
2022/05/15 01:32:35;;;;;;;11.43;3.15;;;;;;;11.42;100.00;98759.84;6197712;23;20047;-63
2022/05/15 01:35:20;;;;;;;10.15;2.97;;;;;;;11.43;100.00;98757.13;6218977;23;20485;-63
2022/05/15 01:38:06;;;;;;;11.02;3.00;;;;;;;11.47;100.00;98761.38;6249944;23;20035;-64
2022/05/15 01:40:50;;;;;;;;;;;;;;;11.41;100.00;98771.38;6250526;22;20031;-62
2022/05/15 01:43:36;;;;;;;10.85;3.10;;;;;;;11.24;100.00;98756.09;6226298;23;19926;-65
2022/05/15 01:46:23;;;;;;;9.15;2.85;;;;;;;11.36;100.00;98768.91;6218517;23;20031;-63
2022/05/15 01:49:09;;;;;;;8.93;3.00;;;;;;;11.32;100.00;98742.56;6196034;23;20027;-63
2022/05/15 01:51:55;;;;;;;11.27;3.35;;;;;;;11.36;100.00;98762.75;6228229;23;20031;-63
2022/05/15 01:54:41;;;;;;;7.60;2.55;;;;;;;11.39;100.00;98768.78;6249927;23;20069;-62
2022/05/15 01:57:26;;;;;;;7.25;3.00;;;;;;;11.33;100.00;98771.69;6248460;23;20082;-65
2022/05/15 02:00:15;;;;;;;9.35;2.55;;;;;;;11.33;100.00;98763.72;6218142;23;20027;-62
2022/05/15 02:03:00;;;;;;;9.43;2.78;;;;;;;11.30;100.00;98760.31;6204654;23;20027;-63
2022/05/15 02:05:44;;;;;;;5.65;2.53;;;;;;;11.23;100.00;98749.06;6228173;23;20023;-63
2022/05/15 02:08:31;;;;;;;;;;;;;;;11.39;100.00;98767.94;6218808;23;20059;-63
2022/05/15 02:11:16;;;;;;;8.30;2.40;;;;;;;11.35;100.00;98767.16;6249767;23;19973;-63
2022/05/15 02:14:02;;;;;;;9.18;2.80;;;;;;;11.23;100.00;98756.19;6249640;23;20103;-63
2022/05/15 02:16:46;;;;;;;10.27;2.50;;;;;;;11.29;100.00;98755.94;6238376;23;20073;-63
2022/05/15 02:19:31;;;;;;;11.30;2.75;;;;;;;11.37;100.00;98775.97;6240943;23;20074;-63
2022/05/15 02:22:15;;;;;;;6.35;2.83;;;;;;;11.34;100.00;98770.75;6247892;23;20070;-62
2022/05/15 02:25:00;;;;;;;14.75;3.50;;;;;;;11.37;100.00;98765.34;6227834;23;20058;-63
2022/05/15 02:27:46;;;;;;;10.82;2.63;;;;;;;11.30;100.00;98752.34;6218410;23;20070;-62
2022/05/15 02:30:31;;;;;;;7.50;2.92;;;;;;;11.16;100.00;98744.91;6249006;23;20074;-71
2022/05/15 02:33:17;;;;;;;9.48;2.42;;;;;;;11.22;100.00;98770.34;6196659;23;20074;-63
2022/05/15 02:36:03;;;;;;;8.38;2.25;;;;;;;11.20;100.00;98770.41;6247103;23;20034;-63
2022/05/15 02:38:49;;;;;;;11.88;2.72;;;;;;;11.11;100.00;98768.13;6196508;23;20450;-63
2022/05/15 02:41:34;;;;;;;5.88;2.42;;;;;;;11.00;100.00;98740.28;6227117;23;20118;-63
2022/05/15 02:44:20;;;;;;;7.30;2.92;;;;;;;11.21;100.00;98779.25;6227803;23;20027;-63
2022/05/15 02:47:05;;;;;;;8.35;2.53;;;;;;;11.18;100.00;98769.63;6227936;23;20031;-62
2022/05/15 02:52:54;;;;;;;4.80;2.90;;;;;;;11.05;100.00;98740.97;6227568;23;20073;-63
2022/05/15 02:55:39;;;;;;;8.45;2.70;;;;;;;11.26;100.00;98774.63;6196762;23;20030;-66
2022/05/15 02:58:24;;;;;;;6.20;2.50;;;;;;;11.24;100.00;98768.53;6215874;23;20099;-74
2022/05/15 03:01:08;;;;;;;7.60;2.45;;;;;;;11.34;100.00;98770.75;6217876;23;20030;-67
2022/05/15 03:03:53;;;;;;;5.82;2.60;;;;;;;11.36;100.00;98766.25;6203838;23;20359;-63
2022/05/15 03:06:37;;;;;;;6.18;2.47;;;;;;;11.35;100.00;98769.81;6227785;23;20493;-62
2022/05/15 03:09:21;;;;;;;5.63;2.33;;;;;;;11.38;100.00;98774.16;6227735;23;20023;-62
2022/05/15 03:12:06;;;;;;;9.27;2.63;;;;;;;11.29;100.00;98756.81;6250765;23;20081;-62
2022/05/15 03:14:51;;;;;;;;;;;;;;;11.43;100.00;98788.13;6206989;23;20354;-61
2022/05/15 03:17:35;;;;;;;4.88;2.20;;;;;;;11.49;100.00;98778.13;6226813;23;20360;-65
2022/05/15 03:20:20;;;;;;;8.00;2.70;;;;;;;11.47;100.00;98765.84;6196698;23;20102;-62
2022/05/15 03:23:05;;;;;;;7.15;2.55;;;;;;;11.64;100.00;98779.34;6237910;23;20031;-64
2022/05/15 03:25:50;;;;;;;6.80;2.65;;;;;;;11.66;100.00;98774.81;6227745;23;20030;-62
2022/05/15 03:28:34;;;;;;;4.57;1.88;;;;;;;11.68;100.00;98775.63;6205367;23;20412;-63
2022/05/15 03:31:19;;;;;;;6.22;2.22;;;;;;;11.85;100.00;98779.34;6197143;23;20027;-62
2022/05/15 03:34:05;;;;;;;5.32;1.88;;;;;;;11.87;100.00;98776.63;6228523;23;20035;-63
2022/05/15 03:36:52;;;;;;;7.68;2.00;;;;;;;11.85;100.00;98755.44;6216726;23;20521;-68
2022/05/15 03:39:36;;;;;;;5.30;1.80;;;;;;;12.00;100.00;98780.50;6217202;23;20074;-63
2022/05/15 03:42:21;;;;;;;7.38;2.38;;;;;;;11.99;100.00;98779.63;6248401;22;20079;-63
2022/05/15 03:45:06;;;;;;;4.25;2.15;;;;;;;12.08;100.00;98779.25;6250153;23;20027;-64
2022/05/15 03:47:53;;;;;;;5.03;1.90;;;;;;;12.18;100.00;98774.44;6216216;23;20246;-63
2022/05/15 03:50:38;;;;;;;4.25;1.55;;;;;;;12.15;100.00;98753.28;6228035;23;20088;-62
2022/05/15 03:53:24;;;;;;;6.00;1.98;;;;;;;12.27;100.00;98777.53;6240286;23;20105;-64
2022/05/15 03:56:09;;;;;;;4.93;1.98;;;;;;;12.28;100.00;98771.31;6248113;23;20331;-64
2022/05/15 03:58:53;;;;;;;4.53;1.65;;;;;;;12.25;100.00;98763.47;6217201;23;20126;-63
2022/05/15 04:01:38;;;;;;;5.13;1.77;;;;;;;12.31;100.00;98770.31;6237499;23;20024;-64
2022/05/15 04:04:23;;;;;;;6.57;1.70;;;;;;;12.18;100.00;98748.69;6216999;23;20031;-61
2022/05/15 04:07:07;;;;;;;4.45;1.80;;;;;;;12.38;100.00;98777.09;6251010;23;20390;-64
2022/05/15 04:09:52;;;;;;;3.65;1.60;;;;;;;12.37;100.00;98784.22;6228893;23;20408;-62
2022/05/15 04:12:37;;;;;;;5.75;1.50;;;;;;;12.32;100.00;98761.41;6242025;23;20082;-62
2022/05/15 04:15:21;;;;;;;6.82;1.65;;;;;;;12.37;100.00;98760.28;6250532;23;20034;-66
2022/05/15 04:18:06;;;;;;;3.67;1.73;;;;;;;12.53;100.00;98787.06;6250747;23;20426;-62
2022/05/15 04:20:51;;;;;;;;;;;;;;;12.57;100.00;98788.66;6217273;23;20137;-64
2022/05/15 04:23:36;;;;;;;7.43;1.98;;;;;;;12.43;100.00;98770.63;6219130;23;19947;-61
2022/05/15 04:26:20;;;;;;;4.18;1.60;;;;;;;12.46;100.00;98789.13;6240833;23;20374;-63
2022/05/15 04:29:05;;;;;;;4.20;1.60;;;;;;;12.43;100.00;98773.28;6229187;23;20022;-63
2022/05/15 04:31:55;;;;;;;5.68;1.45;;;;;;;12.65;100.00;98781.19;6241599;23;20031;-61
2022/05/15 04:34:40;;;;;;;3.38;1.45;;;;;;;12.65;100.00;98774.09;6226645;23;20366;-68
2022/05/15 04:37:24;;;;;;;5.00;1.38;;;;;;;12.78;100.00;98783.25;6252039;23;20083;-64
2022/05/15 04:40:10;;;;;;;6.07;1.90;;;;;;;12.85;100.00;98783.84;6249426;23;20092;-62
2022/05/15 04:42:55;;;;;;;5.05;1.70;;;;;;;12.83;100.00;98778.63;6251748;23;20031;-63
2022/05/15 04:45:39;;;;;;;10.73;1.40;;;;;;;12.90;100.00;98774.72;6218921;23;20027;-63
2022/05/15 04:48:24;;;;;;;4.47;1.40;;;;;;;12.97;100.00;98780.63;6228837;23;20087;-65
2022/05/15 04:51:08;;;;;;;4.28;1.40;;;;;;;12.96;100.00;98781.56;6241675;23;20070;-62
2022/05/15 04:53:53;;;;;;;3.50;1.50;;;;;;;12.99;100.00;98771.69;6249936;23;20421;-69
2022/05/15 04:56:37;;;;;;;6.03;1.40;;;;;;;13.10;100.00;98782.69;6251539;23;20026;-62
2022/05/15 04:59:23;;;;;;;4.80;1.30;;;;;;;13.08;100.00;98779.25;6239080;23;20489;-64
2022/05/15 05:02:07;;;;;;;7.28;1.40;;;;;;;13.09;100.00;98778.31;6240135;23;20030;-62
2022/05/15 05:04:51;;;;;;;6.78;1.45;;;;;;;13.02;100.00;98760.91;6218369;23;20695;-63
2022/05/15 05:07:37;;;;;;;7.35;1.40;;;;;;;13.15;100.00;98777.19;6197614;23;20226;-63
2022/05/15 05:10:21;;;;;;;4.90;1.65;;;;;;;13.32;100.00;98779.91;6252806;23;20027;-63
2022/05/15 05:13:07;;;;;;;2.33;1.30;;;;;;;13.29;100.00;98764.06;6251191;23;20027;-64
2022/05/15 05:15:51;;;;;;;6.50;1.48;;;;;;;13.50;100.00;98776.41;6241193;23;20073;-64
2022/05/15 05:18:35;;;;;;;5.35;1.58;;;;;;;13.64;100.00;98777.47;6249640;23;20042;-64
2022/05/15 05:21:20;;;;;;;6.93;1.38;;;;;;;13.68;100.00;98749.75;6251792;23;20096;-62
2022/05/15 05:24:04;;;;;;;3.85;1.30;;;;;;;13.92;100.00;98770.81;6250472;23;20070;-63
2022/05/15 05:26:49;;;;;;;5.82;2.00;;;;;;;13.97;100.00;98780.31;6218501;23;20077;-63
2022/05/15 05:29:34;;;;;;;5.43;1.30;;;;;;;14.07;100.00;98762.03;6218215;23;20035;-63
2022/05/15 05:32:18;;;;;;;7.00;1.30;;;;;;;14.25;100.00;98759.34;6240409;23;20103;-67
2022/05/15 05:35:04;;;;;;;3.75;1.27;;;;;;;14.60;100.00;98789.53;6218306;23;20461;-62
2022/05/15 05:37:50;;;;;;;5.05;1.30;;;;;;;14.80;100.00;98773.34;6248532;23;20062;-64
2022/05/15 05:40:35;;;;;;;3.67;1.45;;;;;;;14.97;100.00;98776.00;6217943;22;20027;-65
2022/05/15 05:43:19;;;;;;;7.72;1.50;;;;;;;15.05;100.00;98779.13;6240211;23;20231;-63
2022/05/15 05:46:04;;;;;;;3.83;1.20;;;;;;;15.12;100.00;98778.72;6249968;23;20027;-64
2022/05/15 05:48:48;;;;;;;3.50;0.93;;;;;;;15.16;100.00;98777.59;6240928;23;20083;-65
2022/05/15 05:51:33;;;;;;;5.80;1.25;;;;;;;15.26;100.00;98773.47;6249192;23;20105;-68
2022/05/15 05:54:17;;;;;;;2.83;1.10;;;;;;;15.29;100.00;98776.00;6241200;23;20035;-66
2022/05/15 05:57:02;;;;;;;3.63;1.13;;;;;;;15.30;100.00;98776.84;6215853;23;20358;-64
2022/05/15 05:59:46;;;;;;;5.40;1.17;;;;;;;15.42;100.00;98771.72;6239443;23;20035;-63
2022/05/15 06:02:31;;;;;;;2.88;0.90;;;;;;;15.53;100.00;98782.69;6215912;23;20109;-64
2022/05/15 06:05:17;;;;;;;6.50;1.30;;;;;;;15.53;100.00;98763.09;6250875;23;20105;-63
2022/05/15 06:08:01;;;;;;;5.65;1.23;;;;;;;15.82;100.00;98781.06;6250539;23;20078;-64
2022/05/15 06:10:46;;;;;;;4.03;0.88;;;;;;;15.91;100.00;98753.78;6250779;23;20031;-63
2022/05/15 06:13:32;;;;;;;4.13;0.93;;;;;;;16.22;100.00;98772.47;6217715;23;20349;-64
2022/05/15 06:16:18;;;;;;;4.18;1.00;;;;;;;16.37;100.00;98771.53;6215404;23;20078;-64
2022/05/15 06:19:02;;;;;;;7.43;0.90;;;;;;;16.32;100.00;98777.19;6217666;23;20081;-63
2022/05/15 06:21:47;;;;;;;2.25;0.85;;;;;;;16.18;100.00;98762.91;6249099;23;20431;-63
2022/05/15 06:24:31;;;;;;;2.88;0.70;;;;;;;16.40;100.00;98782.94;6249265;23;20047;-64
2022/05/15 06:27:16;;;;;;;4.72;0.95;;;;;;;16.41;100.00;98782.03;6250639;23;20495;-63
2022/05/15 06:30:01;;;;;;;2.63;1.00;;;;;;;16.53;100.00;98770.59;6175464;23;20031;-64
2022/05/15 06:32:47;;;;;;;8.82;0.90;;;;;;;16.73;100.00;98769.41;6240535;23;20379;-65
2022/05/15 06:35:32;;;;;;;3.25;0.80;;;;;;;16.74;100.00;98773.81;6215295;23;20035;-65
2022/05/15 06:38:16;;;;;;;3.20;1.00;;;;;;;16.46;100.00;98766.53;6217655;23;20445;-65
2022/05/15 06:41:01;;;;;;;3.78;1.10;;;;;;;16.32;100.00;98763.81;6217796;23;20031;-64
2022/05/15 06:43:45;;;;;;;4.47;1.25;;;;;;;16.42;100.00;98773.03;6250436;23;20077;-68
2022/05/15 06:46:30;;;;;;;3.38;0.80;;;;;;;16.32;100.00;98765.63;6250283;23;20059;-63
2022/05/15 06:49:15;;;;;;;2.95;0.98;;;;;;;16.27;100.00;98765.91;6217297;23;20027;-64
2022/05/15 06:51:59;;;;;;;;;;;;;;;16.26;100.00;98774.00;6206785;23;20093;-64
2022/05/15 06:54:43;;;;;;;3.08;0.85;;;;;;;16.26;100.00;98771.34;6247987;23;19973;-63
2022/05/15 06:57:31;;;;;;;6.75;1.05;;;;;;;16.18;100.00;98770.94;6240127;23;20063;-64
2022/05/15 07:00:29;;;;;;;3.83;1.15;;;;;;;16.30;100.00;98765.69;6226329;23;20062;-64
2022/05/15 07:03:15;;;;;;;5.85;1.10;;;;;;;16.41;100.00;98762.41;6215289;23;20039;-65
2022/05/15 07:05:59;;;;;;;4.07;1.00;;;;;;;16.39;100.00;98751.81;6217259;23;20023;-62
2022/05/15 07:08:44;;;;;;;3.20;1.15;;;;;;;16.68;100.00;98763.44;6247742;23;20039;-64
2022/05/15 07:11:28;;;;;;;3.92;1.25;;;;;;;17.39;100.00;98760.72;6216947;23;20086;-63
2022/05/15 07:14:13;;;;;;;;;;;;;;;17.95;100.00;98763.31;6227273;23;20101;-65
2022/05/15 07:16:57;;;;;;;3.47;0.88;;;;;;;17.46;100.00;98755.88;6250148;23;20057;-64
2022/05/15 07:19:42;;;;;;;1.73;0.93;;;;;;;17.07;100.00;98764.56;6239874;23;20027;-62
2022/05/15 07:22:26;;;;;;;5.10;1.10;;;;;;;17.00;100.00;98759.66;6226401;23;20077;-65
2022/05/15 07:25:11;;;;;;;3.15;0.93;;;;;;;16.86;100.00;98746.28;6249777;23;20027;-61
2022/05/15 07:27:55;;;;;;;5.85;1.20;;;;;;;17.02;100.00;98761.28;6247565;23;20073;-65
2022/05/15 07:30:40;;;;;;;4.25;1.13;;;;;;;17.00;100.00;98752.50;6227340;23;20031;-64
2022/05/15 07:33:28;;;;;;;6.53;1.10;;;;;;;17.01;100.00;98759.56;6215589;23;20031;-65
2022/05/15 07:36:13;;;;;;;2.65;1.20;;;;;;;17.03;100.00;98759.47;6217076;23;20028;-63
2022/05/15 07:38:57;;;;;;;2.35;0.82;;;;;;;17.26;97.38;98759.75;6240029;23;20024;-64
2022/05/15 07:41:41;;;;;;;2.38;1.20;;;;;;;17.41;96.77;98737.38;6218202;23;20078;-67
2022/05/15 07:44:27;;;;;;;3.85;1.20;;;;;;;17.59;94.45;98746.94;6251632;23;20024;-64
2022/05/15 07:47:12;;;;;;;2.33;0.90;;;;;;;17.83;91.14;98753.41;6216876;23;20034;-65
2022/05/15 07:49:58;;;;;;;8.48;1.00;;;;;;;18.74;83.34;98741.91;6197841;23;20039;-63
2022/05/15 07:52:43;;;;;;;2.30;0.82;;;;;;;19.94;74.35;98749.28;6241314;23;20031;-63
2022/05/15 07:55:28;;;;;;;3.80;0.90;;;;;;;21.22;67.97;98753.72;6242126;23;20034;-65
2022/05/15 07:58:12;;;;;;;3.38;0.90;;;;;;;22.08;54.63;98752.06;6229073;23;20115;-65
2022/05/15 08:00:57;;;;;;;1.95;0.77;;;;;;;21.66;55.84;98757.28;6250491;23;20026;-71
2022/05/15 08:03:44;;;;;;;3.33;0.80;;;;;;;22.63;52.48;98749.19;6241537;23;20027;-64
2022/05/15 08:09:31;;;;;;;3.30;0.80;;;;;;;22.08;52.57;98747.53;6250552;23;20484;-66
2022/05/15 08:12:15;;;;;;;;;;;;;;;22.73;57.81;98750.97;6252201;23;20031;-63
2022/05/15 08:14:59;;;;;;;3.65;0.80;;;;;;;22.22;51.68;98760.75;6249628;23;19962;-63
2022/05/15 08:17:43;;;;;;;4.00;0.90;;;;;;;21.55;54.09;98753.69;6251798;23;20051;-64
2022/05/15 08:23:37;;;;;;;2.05;0.90;;;;;;;20.16;58.72;98742.22;6226463;23;20030;-64
2022/05/15 08:26:23;;;;;;;4.10;0.73;;;;;;;19.84;61.71;98727.56;6251476;23;20063;-64
2022/05/15 08:29:07;;;;;;;2.28;0.90;;;;;;;21.30;54.42;98721.59;6229322;23;20784;-66
2022/05/15 08:31:52;;;;;;;1.67;0.80;;;;;;;23.46;44.96;98745.50;6228578;23;20047;-64
2022/05/15 08:34:37;;;;;;;2.00;0.95;;;;;;;22.80;45.52;98735.09;6207475;23;20125;-64
2022/05/15 08:37:21;;;;;;;2.03;0.80;;;;;;;21.83;46.63;98723.53;6226225;23;20030;-67
2022/05/15 08:40:07;;;;;;;1.85;0.85;;;;;;;21.10;49.91;98736.69;6251348;23;20572;-64
2022/05/15 08:42:58;;;;;;;3.55;0.90;;;;;;;22.19;49.52;98742.09;6226109;23;20031;-67
2022/05/15 08:45:57;;;;;;;2.60;0.70;;;;;;;24.20;41.16;98745.03;6251225;23;20027;-64
2022/05/15 08:48:41;;;;;;;1.80;0.77;;;;;;;25.61;35.71;98740.50;6251320;23;20096;-64
2022/05/15 08:51:26;;;;;;;;;;;;;;;27.03;31.83;98756.00;6226775;23;20031;-65
2022/05/15 08:54:11;;;;;;;2.60;0.60;;;;;;;27.08;32.90;98759.09;6251348;23;19961;-64
2022/05/15 08:56:56;;;;;;;4.18;0.90;;;;;;;27.31;32.60;98735.81;6228198;23;20078;-65
2022/05/15 08:59:52;;;;;;;10.05;0.95;;;;;;;23.60;41.94;98751.41;6228039;23;20095;-64
2022/05/15 09:02:41;;;;;;;9.82;1.05;;;;;;;22.01;48.73;98767.91;6206863;23;20035;-64
2022/05/15 09:05:29;;;;;;;1.60;0.80;;;;;;;21.38;52.17;98763.16;6250898;23;20798;-65
2022/05/15 09:08:52;;;;;;;4.05;0.90;;;;;;;21.09;54.10;98782.63;6218343;23;20078;-64
2022/05/15 09:12:00;;;;;;;5.93;0.80;;;;;;;20.57;58.30;98774.09;6248620;23;20023;-65
2022/05/15 09:14:47;;;;;;;2.97;0.73;;;;;;;20.15;61.73;98786.28;6214326;23;20031;-65
2022/05/15 09:17:46;;;;;;;7.07;0.82;;;;;;;19.99;65.36;98790.16;6218227;23;20023;-64
2022/05/15 09:21:09;;;;;;;2.35;1.10;;;;;;;19.72;69.50;98770.66;6251310;23;20518;-64
2022/05/15 09:23:59;;;;;;;3.03;1.00;;;;;;;19.62;71.13;98783.06;6228324;23;20027;-63
2022/05/15 09:26:46;;;;;;;4.72;1.40;;;;;;;19.72;73.26;98776.91;6249159;23;20030;-64
2022/05/15 09:29:34;;;;;;;5.03;1.52;;;;;;;19.79;76.72;98780.00;6206714;23;20035;-65
2022/05/15 09:32:30;;;;;;;6.80;1.50;;;;;;;19.77;79.66;98776.53;6251166;23;20027;-64
2022/05/15 09:35:36;;;;;;;3.97;1.80;;;;;;;19.83;82.41;98776.13;6204250;23;20031;-65
2022/05/15 09:38:29;;;;;;;5.43;1.60;;;;;;;19.64;83.11;98781.09;6193834;23;20532;-66
2022/05/15 09:44:34;;;;;;;3.72;1.42;;;;;;;19.06;83.61;98788.88;6227394;23;20027;-65
2022/05/15 09:47:25;;;;;;;3.35;1.30;;;;;;;18.71;91.85;98796.66;6249416;23;20424;-68
2022/05/15 09:50:38;;;;;;;2.58;1.17;;;;;;;18.33;90.03;98733.94;6225623;23;20027;-63
2022/05/15 09:53:32;;;;;;;3.03;0.95;;;;;;;18.20;94.32;98761.69;6247271;23;20027;-65
2022/05/15 09:56:20;;;;;;;5.43;1.20;;;;;;;18.36;100.00;98765.13;6196588;23;20477;-66
2022/05/15 09:59:05;;;;;;;5.97;1.52;;;;;;;18.46;100.00;98771.56;6206477;23;20027;-66
2022/05/15 10:01:58;;;;;;;2.03;1.10;;;;;;;18.62;95.56;98783.84;6237999;23;20067;-66
2022/05/15 10:04:48;;;;;;;7.40;3.08;;;;;;;18.16;99.37;98778.97;6250490;23;20070;-66
2022/05/15 10:07:44;;;;;;;7.15;1.67;;;;;;;18.01;100.00;98787.03;6240628;23;20027;-64
2022/05/15 10:10:31;;;;;;;5.63;0.90;;;;;;;17.90;100.00;98765.47;6237908;23;20122;-64
2022/05/15 10:13:35;;;;;;;2.50;1.17;;;;;;;18.81;100.00;98784.34;6250663;23;20520;-66
2022/05/15 10:16:47;;;;;;;1.83;1.00;;;;;;;19.55;89.52;98763.81;6240398;23;20027;-64
2022/05/15 10:19:44;;;;;;;2.55;0.88;;;;;;;19.69;82.77;98785.19;6240421;23;20027;-67
2022/05/15 10:22:43;;;;;;;4.40;0.98;;;;;;;19.19;82.60;98774.44;6227621;23;20106;-66
2022/05/15 10:25:53;;;;;;;2.85;1.45;;;;;;;18.13;87.11;98769.31;6248314;23;20081;-64
2022/05/15 10:28:59;;;;;;;3.05;1.20;;;;;;;17.22;92.37;98776.97;6248032;23;20047;-68
2022/05/15 10:31:53;;;;;;;3.25;0.90;;;;;;;16.86;95.77;98759.66;6226601;23;20130;-72
2022/05/15 10:34:37;;;;;;;2.15;0.80;;;;;;;16.44;100.00;98762.25;6229100;23;20142;-64
2022/05/15 10:37:51;;;;;;;2.38;1.15;;;;;;;16.46;100.00;98766.53;6239589;23;20031;-64
2022/05/15 10:41:09;;;;;;;3.08;1.20;;;;;;;16.86;100.00;98779.25;6227570;22;20348;-64
2022/05/15 10:44:02;;;;;;;3.55;1.00;;;;;;;16.85;94.08;98779.38;6117944;23;20105;-64
2022/05/15 10:46:58;;;;;;;2.40;0.98;;;;;;;16.89;95.31;98776.41;6125455;23;20061;-64
2022/05/15 10:50:20;;;;;;;4.38;1.25;;;;;;;17.10;96.46;98775.06;6127563;23;20033;-64
2022/05/15 11:00:08;;;;;;;1.95;0.90;;;;;;;18.35;95.22;98764.25;6129757;23;20032;-64
2022/05/15 11:03:20;;;;;;;3.50;0.90;;;;;;;19.17;88.44;98757.59;6095455;23;20129;-64
2022/05/15 11:06:11;;;;;;;3.33;1.30;;;;;;;19.89;79.64;98767.59;6125624;23;20145;-64
2022/05/15 11:09:12;;;;;;;1.60;0.93;;;;;;;20.63;70.19;98747.56;6127258;23;20028;-65
2022/05/15 11:12:02;;;;;;;1.65;0.70;;;;;;;21.14;58.62;98773.19;6127375;23;20081;-65
2022/05/15 11:15:01;;;;;;;3.40;0.60;;;;;;;21.26;57.03;98769.53;6126627;23;20152;-67
2022/05/15 11:18:01;;;;;;;5.03;0.73;;;;;;;22.08;51.77;98773.66;6115154;23;20393;-67
2022/05/15 11:20:53;;;;;;;1.50;0.60;;;;;;;22.64;49.84;98776.09;6211136;23;20066;-64
2022/05/15 11:24:32;;;;;;;1.30;0.70;;;;;;;23.06;48.06;98780.53;6195579;23;20047;-65
2022/05/15 11:27:30;;;;;;;3.17;0.90;;;;;;;22.99;49.28;98767.69;6126572;23;20097;-70
2022/05/15 11:30:24;;;;;;;3.20;0.73;;;;;;;22.94;47.27;98776.19;6106622;23;20045;-63
2022/05/15 11:33:32;;;;;;;2.35;0.80;;;;;;;22.92;48.22;98761.06;6127362;23;20539;-65
2022/05/15 11:36:33;;;;;;;1.13;0.70;;;;;;;22.62;48.29;98759.13;6106838;23;20130;-65
2022/05/15 11:39:18;;;;;;;3.72;1.00;;;;;;;22.61;48.28;98775.47;6095124;23;20514;-66
2022/05/15 11:42:17;;;;;;;3.03;0.80;;;;;;;22.66;48.48;98775.97;6149849;23;20044;-64
2022/05/15 11:45:27;;;;;;;3.05;1.00;;;;;;;23.08;49.84;98770.44;6126490;23;20084;-66
2022/05/15 11:48:17;;;;;;;2.95;1.10;;;;;;;23.17;48.26;98766.09;6157086;23;20113;-64
2022/05/15 11:51:25;;;;;;;2.72;1.00;;;;;;;23.59;49.36;98765.06;6154746;23;20072;-64
2022/05/15 11:54:26;;;;;;;2.67;1.20;;;;;;;23.43;47.97;98764.69;6134269;23;20043;-65
2022/05/15 11:57:14;;;;;;;3.85;1.20;;;;;;;23.35;49.20;98748.28;6146649;23;20024;-64
2022/05/15 12:00:03;;;;;;;4.82;1.40;;;;;;;23.47;49.58;98753.47;6133080;23;20064;-64
2022/05/15 12:02:56;;;;;;;2.38;1.02;;;;;;;23.43;49.06;98762.00;6225762;23;20022;-64
2022/05/15 12:06:02;;;;;;;1.75;1.00;;;;;;;23.33;48.55;98759.22;6226778;23;20030;-65
2022/05/15 12:09:08;;;;;;;4.53;1.10;;;;;;;23.23;49.44;98755.63;6216879;23;20023;-65
2022/05/15 12:11:57;;;;;;;3.22;1.25;;;;;;;23.29;49.65;98751.53;6249868;23;20516;-68
2022/05/15 12:15:07;;;;;;;2.92;1.40;;;;;;;22.75;47.61;98740.03;6239756;23;20030;-64
2022/05/15 12:17:59;;;;;;;4.25;1.10;;;;;;;21.95;49.72;98706.31;6205340;23;20070;-64
2022/05/15 12:20:49;;;;;;;2.38;1.20;;;;;;;22.27;51.22;98750.41;6238921;23;20023;-69
2022/05/15 12:24:27;;;;;;;3.17;1.00;;;;;;;22.71;53.23;98744.88;6227245;23;20050;-64
2022/05/15 12:27:12;;;;;;;1.88;1.15;;;;;;;22.93;51.20;98747.44;6240443;23;20359;-65
2022/05/15 12:30:05;;;;;;;1.65;0.82;;;;;;;22.94;48.98;98726.66;6251529;23;20031;-65
2022/05/15 12:32:53;;;;;;;5.10;0.90;;;;;;;23.11;47.61;98740.44;6251348;23;20026;-64
2022/05/15 12:35:41;;;;;;;1.88;1.00;;;;;;;22.98;48.26;98744.34;6228708;23;20046;-68
2022/05/15 12:38:27;;;;;;;2.33;1.00;;;;;;;22.12;49.70;98748.13;6218586;23;20027;-64
2022/05/15 12:41:22;;;;;;;4.45;1.10;;;;;;;21.92;50.76;98747.94;6249408;22;20458;-65
2022/05/15 12:44:08;;;;;;;1.80;1.05;;;;;;;21.70;51.05;98753.38;6218467;23;20027;-68
2022/05/15 12:46:56;;;;;;;1.75;1.05;;;;;;;21.32;53.21;98750.16;6250047;23;20051;-65
2022/05/15 12:49:46;;;;;;;1.77;1.05;;;;;;;20.95;56.03;98745.09;6216329;23;20050;-68
2022/05/15 12:52:33;;;;;;;4.00;1.65;;;;;;;20.60;60.14;98739.69;6197220;23;20074;-64
2022/05/15 12:55:34;;;;;;;1.77;0.93;;;;;;;20.52;57.30;98746.63;6250482;23;20189;-64
2022/05/15 12:58:32;;;;;;;2.55;1.00;;;;;;;20.52;57.89;98747.50;6204857;23;20035;-66
2022/05/15 13:01:18;;;;;;;2.60;1.20;;;;;;;20.33;57.42;98722.13;6197302;23;20035;-65
2022/05/15 13:04:05;;;;;;;4.75;1.20;;;;;;;20.45;58.93;98748.94;6240833;23;20031;-64
2022/05/15 13:06:56;;;;;;;4.05;1.20;;;;;;;20.56;58.05;98740.91;6226104;23;20031;-68
2022/05/15 13:09:41;;;;;;;4.15;1.30;;;;;;;20.62;54.65;98744.97;6249685;23;20098;-68
2022/05/15 13:12:25;;;;;;;6.70;1.67;;;;;;;20.28;53.84;98748.50;6239617;23;20473;-65
2022/05/15 13:15:10;;;;;;;2.63;0.90;;;;;;;20.23;53.03;98748.88;6241062;23;20035;-65
2022/05/15 13:18:00;;;;;;;3.67;1.10;;;;;;;20.09;55.31;98746.34;6228125;23;20067;-63
2022/05/15 13:20:52;;;;;;;1.42;0.90;;;;;;;19.72;52.34;98733.84;6225685;23;20472;-67
2022/05/15 13:23:46;;;;;;;9.98;2.10;;;;;;;19.45;53.47;98726.91;6228207;23;20031;-68
2022/05/15 13:26:40;;;;;;;4.85;1.10;;;;;;;19.28;54.04;98740.72;6228444;23;20074;-66
2022/05/15 13:29:28;;;;;;;3.42;1.30;;;;;;;18.98;56.17;98743.72;6226192;23;20026;-66